Shinkomaru No.8 — JK5142 — position and weather

sailwx.info

Track history (hours):
 
Tides and Currents Weather Stations Pressure Air Temp Water Temp Dewpoint Dewpoint Depression Visibility Wind Speed Wind Dir Waves Ship Positions

Shinkomaru No.8

Last reported at 2015-Jan-22 08:33 UTC. Time now 2015-Jan-26 10:28 UTC.
Position N 34°11' E 134°56'.

Length 61 m; draft 4.4 m.

Type: Tanker. MMSI: 431400035.

Date/timePositionNaut miles runAvg speedWind from/ knotsBaromVisibWave heightAir tempDewpointWater temp
2015-Jan-22 08:33N 34°11' E 134°56'10 9.7
2015-Jan-22 07:33N 34°14' E 135°07'0 0.1
2015-Jan-22 06:33N 34°14' E 135°07'0 0.0
2015-Jan-22 05:33N 34°14' E 135°07'0 0.0
2015-Jan-22 04:34N 34°14' E 135°07'0 0.0
2015-Jan-22 03:34N 34°14' E 135°07'0 0.0
2015-Jan-22 02:33N 34°14' E 135°07'0 0.0
2015-Jan-22 01:33N 34°14' E 135°07'0 0.0
2015-Jan-22 00:33N 34°14' E 135°07'0 0.0
2015-Jan-21 23:33N 34°14' E 135°07'0 0.0
2015-Jan-21 22:50N 34°14' E 135°07'0 0.0
2015-Jan-21 22:46N 34°14' E 135°07'0 0.7
2015-Jan-21 22:34N 34°14' E 135°07'2 2.3
2015-Jan-21 21:34N 34°15' E 135°05'4 3.7
2015-Jan-21 20:33N 34°12' E 135°02'7 5.7
2015-Jan-21 19:17N 34°09' E 134°54'3 4.1
2015-Jan-21 18:28N 34°08' E 134°50'  
Track history (hours):
 
Tides and Currents Weather Stations Pressure Air Temp Water Temp Dewpoint Dewpoint Depression Visibility Wind Speed Wind Dir Waves Ship Positions

Shinkomaru No.8

Last reported at 2015-Jan-22 08:33 UTC. Time now 2015-Jan-26 10:28 UTC.
Position N 34°11' E 134°56'.

Length 61 m; draft 4.4 m.

Type: Tanker. MMSI: 431400035.

Date/timePositionNaut miles runAvg speedWind from/ knotsBaromVisibWave heightAir tempDewpointWater temp
2015-Jan-22 08:33N 34°11' E 134°56'10 9.7
2015-Jan-22 07:33N 34°14' E 135°07'0 0.1
2015-Jan-22 06:33N 34°14' E 135°07'0 0.0
2015-Jan-22 05:33N 34°14' E 135°07'0 0.0
2015-Jan-22 04:34N 34°14' E 135°07'0 0.0
2015-Jan-22 03:34N 34°14' E 135°07'0 0.0
2015-Jan-22 02:33N 34°14' E 135°07'0 0.0
2015-Jan-22 01:33N 34°14' E 135°07'0 0.0
2015-Jan-22 00:33N 34°14' E 135°07'0 0.0
2015-Jan-21 23:33N 34°14' E 135°07'0 0.0
2015-Jan-21 22:50N 34°14' E 135°07'0 0.0
2015-Jan-21 22:46N 34°14' E 135°07'0 0.7
2015-Jan-21 22:34N 34°14' E 135°07'2 2.3
2015-Jan-21 21:34N 34°15' E 135°05'4 3.7
2015-Jan-21 20:33N 34°12' E 135°02'7 5.7
2015-Jan-21 19:17N 34°09' E 134°54'3 4.1
2015-Jan-21 18:28N 34°08' E 134°50'  

Dump ship's entire track history